createdAt,value
2022-10-23T00:01:44.695Z,29.50
2022-10-23T00:04:17.567Z,29.65
2022-10-23T00:06:45.998Z,30.17
2022-10-23T00:09:17.779Z,27.88
2022-10-23T00:11:50.251Z,25.77
2022-10-23T00:14:21.773Z,27.42
2022-10-23T00:16:49.007Z,26.83
2022-10-23T00:19:16.421Z,27.10
2022-10-23T00:21:43.686Z,25.77
2022-10-23T00:24:11.348Z,27.27
2022-10-23T00:26:40.640Z,26.08
2022-10-23T00:29:10.040Z,26.70
2022-10-23T00:31:38.632Z,28.33
2022-10-23T00:34:08.558Z,31.83
2022-10-23T00:36:37.776Z,31.33
2022-10-23T00:39:06.122Z,34.38
2022-10-23T00:41:33.686Z,34.80
2022-10-23T00:44:29.970Z,31.77
2022-10-23T00:46:59.049Z,30.52
2022-10-23T00:49:28.335Z,30.60
2022-10-23T00:52:05.047Z,29.17
2022-10-23T00:54:39.988Z,28.27
2022-10-23T00:57:12.694Z,26.38
2022-10-23T00:59:40.544Z,26.00
2022-10-23T01:02:08.166Z,30.58
2022-10-23T01:04:36.436Z,29.35
2022-10-23T01:07:33.255Z,29.00
2022-10-23T01:10:15.462Z,28.75
2022-10-23T01:12:56.883Z,28.70
2022-10-23T01:15:37.927Z,25.70
2022-10-23T01:18:37.294Z,27.85
2022-10-23T01:21:30.704Z,27.75
2022-10-23T01:24:09.237Z,28.40
2022-10-23T01:27:09.843Z,27.83
2022-10-23T01:30:01.578Z,29.38
2022-10-23T01:32:42.909Z,31.75
2022-10-23T01:35:24.286Z,30.23
2022-10-23T01:38:09.118Z,28.75
2022-10-23T01:41:02.178Z,27.13
2022-10-23T01:44:00.105Z,28.25
2022-10-23T01:46:28.884Z,27.92
2022-10-23T01:48:59.833Z,28.13
2022-10-23T01:51:31.993Z,26.88
2022-10-23T01:54:01.500Z,27.00
2022-10-23T01:56:35.924Z,27.17
2022-10-23T01:59:10.680Z,28.33
2022-10-23T02:01:44.370Z,24.95
2022-10-23T02:04:18.570Z,27.63
2022-10-23T02:06:45.961Z,27.13
2022-10-23T02:09:13.412Z,25.98
2022-10-23T02:11:54.928Z,27.70
2022-10-23T02:14:56.837Z,24.65
2022-10-23T02:17:49.223Z,25.48
2022-10-23T02:20:28.129Z,25.17
2022-10-23T02:23:19.123Z,25.08
2022-10-23T02:26:12.890Z,25.42
2022-10-23T02:28:51.943Z,26.17
2022-10-23T02:31:23.671Z,26.92
2022-10-23T02:33:50.923Z,27.40
2022-10-23T02:36:19.686Z,28.17
2022-10-23T02:38:47.004Z,26.15
2022-10-23T02:41:17.615Z,26.38
2022-10-23T02:44:50.543Z,25.45
2022-10-23T02:47:26.404Z,25.60
2022-10-23T02:50:33.262Z,24.95
2022-10-23T02:53:35.928Z,23.05
2022-10-23T02:56:36.658Z,22.67
2022-10-23T02:59:24.768Z,24.80
2022-10-23T03:02:02.595Z,24.00
2022-10-23T03:04:32.868Z,22.55
2022-10-23T03:07:00.458Z,22.77
2022-10-23T03:09:27.966Z,25.15
2022-10-23T03:11:55.475Z,23.13
2022-10-23T03:14:22.695Z,25.08
2022-10-23T03:16:50.111Z,24.42
2022-10-23T03:19:17.311Z,25.65
2022-10-23T03:21:44.655Z,25.08
2022-10-23T03:24:11.846Z,27.05
2022-10-23T03:26:39.240Z,27.65
2022-10-23T03:29:06.751Z,27.00
2022-10-23T03:31:34.125Z,25.73
2022-10-23T03:34:04.040Z,25.05
2022-10-23T03:36:33.679Z,28.75
2022-10-23T03:39:00.939Z,29.00
2022-10-23T03:41:28.511Z,27.90
2022-10-23T03:43:55.752Z,30.38
2022-10-23T03:46:23.590Z,28.13
2022-10-23T03:48:50.730Z,30.02
2022-10-23T03:51:18.161Z,30.60
2022-10-23T03:53:45.363Z,29.77
2022-10-23T03:56:12.722Z,29.85
2022-10-23T03:58:39.959Z,30.58
2022-10-23T04:01:07.538Z,29.58
2022-10-23T04:03:34.865Z,29.92
2022-10-23T04:06:02.283Z,33.40
2022-10-23T04:08:29.462Z,33.78
2022-10-23T04:10:57.155Z,29.13
2022-10-23T04:13:24.353Z,31.35
2022-10-23T04:15:53.761Z,32.13
2022-10-23T04:18:20.977Z,35.40
2022-10-23T04:20:50.867Z,33.33
2022-10-23T04:23:18.741Z,38.38
2022-10-23T04:28:15.257Z,35.72
2022-10-23T04:30:42.711Z,34.75
2022-10-23T04:33:09.910Z,31.73
2022-10-23T04:35:37.357Z,34.65
2022-10-23T04:38:04.615Z,32.63
2022-10-23T04:40:32.058Z,33.65
2022-10-23T04:42:59.315Z,29.98
2022-10-23T04:45:27.091Z,31.50
2022-10-23T04:47:54.350Z,31.60
2022-10-23T04:50:22.196Z,31.02
2022-10-23T04:52:53.547Z,33.88
2022-10-23T04:55:21.119Z,34.00
2022-10-23T04:57:48.782Z,33.75
2022-10-23T05:00:16.379Z,32.88
2022-10-23T05:02:44.375Z,33.25
2022-10-23T05:05:12.021Z,35.03
2022-10-23T05:07:39.727Z,35.08
2022-10-23T05:10:07.963Z,33.20
2022-10-23T05:12:35.137Z,33.88
2022-10-23T05:15:02.549Z,35.70
2022-10-23T05:17:40.392Z,34.28
2022-10-23T05:20:15.514Z,30.40
2022-10-23T05:22:46.311Z,32.50
2022-10-23T05:25:13.983Z,31.15
2022-10-23T05:27:41.450Z,28.58
2022-10-23T05:30:10.568Z,28.77
2022-10-23T05:32:39.088Z,31.77
2022-10-23T05:35:16.787Z,31.67
2022-10-23T05:37:48.119Z,31.48
2022-10-23T05:40:15.996Z,29.83
2022-10-23T05:42:43.519Z,31.52
2022-10-23T05:45:11.991Z,31.20
2022-10-23T05:47:39.212Z,29.92
2022-10-23T05:50:07.284Z,33.72
2022-10-23T05:52:34.535Z,32.38
2022-10-23T05:55:02.004Z,30.58
2022-10-23T05:57:33.057Z,31.98
2022-10-23T06:00:00.641Z,33.70
2022-10-23T06:02:28.064Z,33.22
2022-10-23T06:04:55.279Z,34.20
2022-10-23T06:07:31.275Z,33.67
2022-10-23T06:10:00.927Z,31.83
2022-10-23T06:12:28.369Z,32.70
2022-10-23T06:14:55.647Z,31.77
2022-10-23T06:17:23.007Z,33.58
2022-10-23T06:19:50.199Z,32.58
2022-10-23T06:22:17.586Z,30.25
2022-10-23T06:24:44.807Z,31.10
2022-10-23T06:27:12.154Z,32.65
2022-10-23T06:29:39.499Z,32.45
2022-10-23T06:32:07.044Z,31.40
2022-10-23T06:34:34.393Z,38.78
2022-10-23T06:37:02.025Z,31.08
2022-10-23T06:39:31.976Z,33.03
2022-10-23T06:41:59.832Z,31.65
2022-10-23T06:44:26.981Z,29.67
2022-10-23T06:46:54.370Z,30.08
2022-10-23T06:49:21.525Z,27.70
2022-10-23T06:51:48.963Z,27.67
2022-10-23T06:54:16.137Z,24.88
2022-10-23T06:56:43.325Z,23.13
2022-10-23T06:59:10.670Z,23.67
2022-10-23T07:01:38.473Z,22.98
2022-10-23T07:04:06.056Z,25.45
2022-10-23T07:06:33.237Z,23.25
2022-10-23T07:09:00.673Z,28.38
2022-10-23T07:11:27.902Z,26.92
2022-10-23T07:13:55.400Z,27.30
2022-10-23T07:16:23.977Z,24.30
2022-10-23T07:19:01.306Z,26.58
2022-10-23T07:21:37.282Z,24.30
2022-10-23T07:24:05.177Z,23.92
2022-10-23T07:26:32.976Z,22.30
2022-10-23T07:29:00.362Z,20.83
2022-10-23T07:31:28.495Z,18.58
2022-10-23T07:33:56.207Z,18.90
2022-10-23T07:36:23.849Z,19.58
2022-10-23T07:38:52.379Z,20.58
2022-10-23T07:41:19.891Z,17.73
2022-10-23T07:43:47.402Z,17.75
2022-10-23T07:46:14.751Z,17.67
2022-10-23T07:48:42.410Z,19.02
2022-10-23T07:51:14.696Z,19.63
2022-10-23T07:53:44.624Z,19.80
2022-10-23T07:56:22.385Z,16.33
2022-10-23T07:58:53.840Z,17.40
2022-10-23T08:01:37.182Z,18.27
2022-10-23T08:04:05.610Z,19.02
2022-10-23T08:06:35.393Z,17.75
2022-10-23T08:09:06.507Z,17.88
2022-10-23T08:11:37.553Z,18.20
2022-10-23T08:14:06.877Z,18.50
2022-10-23T08:16:37.728Z,17.27
2022-10-23T08:19:07.977Z,18.58
2022-10-23T08:21:35.289Z,20.90
2022-10-23T08:24:02.687Z,18.80
2022-10-23T08:26:30.004Z,18.30
2022-10-23T08:28:59.863Z,19.85
2022-10-23T08:31:27.239Z,20.73
2022-10-23T08:33:54.709Z,18.98
2022-10-23T08:36:28.146Z,19.02
2022-10-23T08:38:58.070Z,20.50
2022-10-23T08:41:31.182Z,22.20
2022-10-23T08:44:55.882Z,20.20
2022-10-23T08:47:53.326Z,22.10
2022-10-23T08:50:26.685Z,20.17
2022-10-23T08:53:25.448Z,22.05
2022-10-23T08:56:04.671Z,20.33
2022-10-23T08:58:46.913Z,20.27
2022-10-23T09:07:20.683Z,20.27
2022-10-23T09:10:42.799Z,20.48
2022-10-23T09:13:48.296Z,19.63
2022-10-23T09:16:30.300Z,20.83
2022-10-23T09:18:58.592Z,20.42
2022-10-23T09:21:29.688Z,24.75
2022-10-23T09:23:57.289Z,29.48
2022-10-23T09:26:24.752Z,27.17
2022-10-23T09:29:02.827Z,26.55
2022-10-23T09:31:30.226Z,26.23
2022-10-23T09:34:01.451Z,28.38
2022-10-23T09:36:29.876Z,25.23
2022-10-23T09:38:59.966Z,24.85
2022-10-23T09:41:31.574Z,24.23
2022-10-23T09:44:04.469Z,24.17
2022-10-23T09:46:47.856Z,24.58
2022-10-23T09:49:35.371Z,21.85
2022-10-23T09:52:35.136Z,21.73
2022-10-23T09:55:19.904Z,20.20
2022-10-23T09:57:48.150Z,19.83
2022-10-23T10:00:25.257Z,18.88
2022-10-23T10:03:06.351Z,18.42
2022-10-23T10:05:41.483Z,15.02
2022-10-23T10:08:28.547Z,16.42
2022-10-23T10:11:06.863Z,16.55
2022-10-23T10:13:34.223Z,15.15
2022-10-23T10:16:27.444Z,13.38
2022-10-23T10:19:20.663Z,12.70
2022-10-23T10:22:08.867Z,12.82
2022-10-23T10:25:02.962Z,11.65
2022-10-23T10:28:12.658Z,12.50
2022-10-23T10:31:30.645Z,9.70
2022-10-23T10:34:07.125Z,9.75
2022-10-23T10:37:29.596Z,10.38
2022-10-23T10:40:23.658Z,9.25
2022-10-23T10:43:38.354Z,8.43
2022-10-23T10:46:23.251Z,7.10
2022-10-23T10:49:26.907Z,7.75
2022-10-23T10:52:03.166Z,7.25
2022-10-23T10:54:53.642Z,7.22
2022-10-23T10:57:37.146Z,6.95
2022-10-23T11:00:18.277Z,6.15
2022-10-23T11:02:49.833Z,6.75
2022-10-23T11:05:35.033Z,5.57
2022-10-23T11:08:22.344Z,6.20
2022-10-23T11:11:00.485Z,5.32
2022-10-23T11:13:43.071Z,5.97
2022-10-23T11:16:20.237Z,6.00
2022-10-23T11:19:17.733Z,5.40
2022-10-23T11:22:20.823Z,5.53
2022-10-23T11:24:57.245Z,5.20
2022-10-23T11:27:34.476Z,4.78
2022-10-23T11:30:08.720Z,4.97
2022-10-23T11:33:12.954Z,5.43
2022-10-23T11:35:54.483Z,5.63
2022-10-23T11:38:30.053Z,5.40
2022-10-23T11:41:19.874Z,4.97
2022-10-23T11:44:01.572Z,5.13
2022-10-23T11:46:38.778Z,4.90
2022-10-23T11:49:21.274Z,4.60
2022-10-23T11:52:03.042Z,5.18
2022-10-23T11:54:30.623Z,7.22
2022-10-23T11:57:17.699Z,7.00
2022-10-23T11:59:48.195Z,6.05
2022-10-23T12:02:33.116Z,5.18
2022-10-23T12:05:08.780Z,5.53
2022-10-23T12:07:41.972Z,5.55
2022-10-23T12:10:30.062Z,6.15
2022-10-23T12:13:00.043Z,5.75
2022-10-23T12:15:28.730Z,5.95
2022-10-23T12:18:17.099Z,6.60
2022-10-23T12:20:53.402Z,5.40
2022-10-23T12:23:38.771Z,5.50
2022-10-23T12:26:33.594Z,4.97
2022-10-23T12:30:01.867Z,4.70
2022-10-23T12:32:54.399Z,4.70
2022-10-23T12:35:59.079Z,4.90
2022-10-23T12:38:33.851Z,4.43
2022-10-23T12:41:26.143Z,4.82
2022-10-23T12:44:05.717Z,4.28
2022-10-23T12:47:04.423Z,5.38
2022-10-23T12:49:34.231Z,5.40
2022-10-23T12:52:05.897Z,5.03
2022-10-23T12:54:39.435Z,5.35
2022-10-23T12:57:30.362Z,5.68
2022-10-23T13:00:04.612Z,5.05
2022-10-23T13:02:34.395Z,5.13
2022-10-23T13:05:07.445Z,5.13
2022-10-23T13:07:42.731Z,4.93
2022-10-23T13:10:23.781Z,9.25
2022-10-23T13:13:04.788Z,8.98
2022-10-23T13:15:44.916Z,6.28
2022-10-23T13:18:15.589Z,3.55
2022-10-23T13:21:03.470Z,3.72
2022-10-23T13:23:34.983Z,3.65
2022-10-23T13:26:07.043Z,4.13
2022-10-23T13:28:52.647Z,3.53
2022-10-23T13:31:33.665Z,3.33
2022-10-23T13:34:00.799Z,3.72
2022-10-23T13:36:37.107Z,4.15
2022-10-23T13:39:10.510Z,4.03
2022-10-23T13:41:44.995Z,3.35
2022-10-23T13:44:18.963Z,3.50
2022-10-23T13:46:48.399Z,3.30
2022-10-23T13:49:16.744Z,4.93
2022-10-23T13:51:54.459Z,4.88
2022-10-23T13:57:00.376Z,3.83
2022-10-23T13:59:27.678Z,3.83
2022-10-23T14:01:55.340Z,4.10
2022-10-23T14:04:23.750Z,3.60
2022-10-23T14:06:54.835Z,4.47
2022-10-23T14:09:22.072Z,3.90
2022-10-23T14:11:49.562Z,3.78
2022-10-23T14:14:16.784Z,3.50
2022-10-23T14:16:44.187Z,3.53
2022-10-23T14:19:11.879Z,3.55
2022-10-23T14:21:39.309Z,3.22
2022-10-23T14:24:06.928Z,4.07
2022-10-23T14:26:34.414Z,3.83
2022-10-23T14:29:05.153Z,3.30
2022-10-23T14:31:37.308Z,3.97
2022-10-23T14:34:04.569Z,4.40
2022-10-23T14:36:38.874Z,3.70
2022-10-23T14:39:17.649Z,3.70
2022-10-23T14:41:45.234Z,4.00
2022-10-23T14:44:12.489Z,3.90
2022-10-23T14:46:39.904Z,5.07
2022-10-23T14:49:07.117Z,5.30
2022-10-23T14:51:34.644Z,4.57
2022-10-23T14:54:05.512Z,5.20
2022-10-23T14:56:37.802Z,5.20
2022-10-23T14:59:05.712Z,5.30
2022-10-23T15:01:43.494Z,5.30
2022-10-23T15:04:14.832Z,5.85
2022-10-23T15:06:44.266Z,5.95
2022-10-23T15:09:11.617Z,15.18
2022-10-23T15:11:39.229Z,10.88
2022-10-23T15:14:07.425Z,7.53
2022-10-23T15:16:41.400Z,6.90
2022-10-23T15:19:15.170Z,5.57
2022-10-23T15:21:48.056Z,5.85
2022-10-23T15:24:17.374Z,9.82
2022-10-23T15:26:45.335Z,7.22
2022-10-23T15:29:14.834Z,6.45
2022-10-23T15:32:01.991Z,6.95
2022-10-23T15:34:30.488Z,6.55
2022-10-23T15:36:58.906Z,6.88
2022-10-23T15:39:33.696Z,7.22
2022-10-23T15:42:03.616Z,6.40
2022-10-23T15:44:33.618Z,7.95
2022-10-23T15:47:01.231Z,7.82
2022-10-23T15:49:30.091Z,8.18
2022-10-23T15:51:57.933Z,8.60
2022-10-23T15:54:28.121Z,8.13
2022-10-23T15:56:58.255Z,9.90
2022-10-23T15:59:26.497Z,10.27
2022-10-23T16:01:54.178Z,10.77
2022-10-23T16:04:22.143Z,9.60
2022-10-23T16:06:49.921Z,9.18
2022-10-23T16:09:17.609Z,8.35
2022-10-23T16:11:45.443Z,8.48
2022-10-23T16:14:17.246Z,9.85
2022-10-23T16:16:44.792Z,11.00
2022-10-23T16:19:12.861Z,11.02
2022-10-23T16:21:41.930Z,10.25
2022-10-23T16:24:10.226Z,10.18
2022-10-23T16:26:38.489Z,9.02
2022-10-23T16:29:08.569Z,10.00
2022-10-23T16:31:36.372Z,9.60
2022-10-23T16:34:05.588Z,8.20
2022-10-23T16:36:34.120Z,7.95
2022-10-23T16:39:03.681Z,7.65
2022-10-23T16:41:32.338Z,8.57
2022-10-23T16:43:59.986Z,11.35
2022-10-23T16:46:28.087Z,13.27
2022-10-23T16:48:55.411Z,12.43
2022-10-23T16:51:26.174Z,11.50
2022-10-23T16:53:54.046Z,11.57
2022-10-23T16:56:25.294Z,12.45
2022-10-23T16:58:52.692Z,12.75
2022-10-23T17:01:32.985Z,12.32
2022-10-23T17:04:01.415Z,10.88
2022-10-23T17:06:32.424Z,14.25
2022-10-23T17:09:02.022Z,12.70
2022-10-23T17:11:37.050Z,12.02
2022-10-23T17:14:08.030Z,11.38
2022-10-23T17:16:37.809Z,14.45
2022-10-23T17:19:15.929Z,13.40
2022-10-23T17:21:56.184Z,13.77
2022-10-23T17:24:24.802Z,17.45
2022-10-23T17:26:54.062Z,20.80
2022-10-23T17:29:21.720Z,16.88
2022-10-23T17:31:50.865Z,15.82
2022-10-23T17:34:22.995Z,15.05
2022-10-23T17:36:53.575Z,15.68
2022-10-23T17:39:25.656Z,18.77
2022-10-23T17:41:54.266Z,18.77
2022-10-23T17:44:22.603Z,15.63
2022-10-23T17:46:53.674Z,15.73
2022-10-23T17:49:22.442Z,14.45
2022-10-23T17:51:58.241Z,13.23
2022-10-23T17:54:27.295Z,12.57
2022-10-23T17:56:56.508Z,10.60
2022-10-23T17:59:23.965Z,11.75
2022-10-23T18:01:51.729Z,12.38
2022-10-23T18:04:20.475Z,13.80
2022-10-23T18:06:52.720Z,15.48
2022-10-23T18:09:22.003Z,18.75
2022-10-23T18:11:50.384Z,21.33
2022-10-23T18:14:21.480Z,22.08
2022-10-23T18:16:50.876Z,21.13
2022-10-23T18:19:19.677Z,20.35
2022-10-23T18:21:48.302Z,18.55
2022-10-23T18:24:16.677Z,16.25
2022-10-23T18:26:44.752Z,16.48
2022-10-23T18:29:13.798Z,15.40
2022-10-23T18:31:42.401Z,16.30
2022-10-23T18:34:23.799Z,14.68
2022-10-23T18:36:54.399Z,17.13
2022-10-23T18:39:25.312Z,16.77
2022-10-23T18:41:57.044Z,14.88
2022-10-23T18:44:29.115Z,14.65
2022-10-23T18:46:59.300Z,12.35
2022-10-23T18:49:27.076Z,13.70
2022-10-23T18:51:54.977Z,13.40
2022-10-23T18:54:22.963Z,12.13
2022-10-23T18:56:51.002Z,11.88
2022-10-23T18:59:20.684Z,11.70
2022-10-23T19:01:49.826Z,12.13
2022-10-23T19:04:18.509Z,12.00
2022-10-23T19:06:48.770Z,10.98
2022-10-23T19:09:16.600Z,12.60
2022-10-23T19:11:45.604Z,12.57
2022-10-23T19:14:13.492Z,13.15
2022-10-23T19:17:00.426Z,11.85
2022-10-23T19:19:35.908Z,13.70
2022-10-23T19:22:04.908Z,14.23
2022-10-23T19:24:43.862Z,11.98
2022-10-23T19:27:11.861Z,13.27
2022-10-23T19:29:45.134Z,14.40
2022-10-23T19:32:13.043Z,16.10
2022-10-23T19:34:40.870Z,15.32
2022-10-23T19:37:08.461Z,15.50
2022-10-23T19:39:35.942Z,16.00
2022-10-23T19:42:03.470Z,28.00
2022-10-23T19:44:31.516Z,34.33
2022-10-23T19:46:58.953Z,37.45
2022-10-23T19:49:26.236Z,40.83
2022-10-23T19:51:53.779Z,46.03
2022-10-23T19:54:21.833Z,47.55
2022-10-23T19:56:50.247Z,38.67
2022-10-23T19:59:18.309Z,35.70
2022-10-23T20:01:48.111Z,37.53
2022-10-23T20:04:19.823Z,45.95
2022-10-23T20:06:48.152Z,27.98
2022-10-23T20:09:15.778Z,23.05
2022-10-23T20:11:45.301Z,23.98
2022-10-23T20:14:13.698Z,19.48
2022-10-23T20:16:44.895Z,22.67
2022-10-23T20:21:49.439Z,21.48
2022-10-23T20:24:19.147Z,22.25
2022-10-23T20:26:52.291Z,21.73
2022-10-23T20:29:20.950Z,21.42
2022-10-23T20:31:48.684Z,20.88
2022-10-23T20:34:16.081Z,21.27
2022-10-23T20:36:47.408Z,23.60
2022-10-23T20:39:19.354Z,21.40
2022-10-23T20:41:47.370Z,19.55
2022-10-23T20:46:50.834Z,23.08
2022-10-23T20:49:19.623Z,21.88
2022-10-23T20:51:54.999Z,23.13
2022-10-23T20:54:28.766Z,22.95
2022-10-23T20:56:57.190Z,23.92
2022-10-23T20:59:25.457Z,24.80
2022-10-23T21:01:55.366Z,24.55
2022-10-23T21:04:27.476Z,25.52
2022-10-23T21:07:09.441Z,26.50
2022-10-23T21:09:39.287Z,25.38
2022-10-23T21:12:07.935Z,28.70
2022-10-23T21:14:36.161Z,29.23
2022-10-23T21:17:03.975Z,31.98
2022-10-23T21:19:31.311Z,29.55
2022-10-23T21:21:58.645Z,25.10
2022-10-23T21:24:25.895Z,24.25
2022-10-23T21:26:53.254Z,26.33
2022-10-23T21:29:20.936Z,29.40
2022-10-23T21:32:01.139Z,26.58
2022-10-23T21:34:29.407Z,25.73
2022-10-23T21:37:14.251Z,28.90
2022-10-23T21:39:44.110Z,28.27
2022-10-23T21:42:13.648Z,26.45
2022-10-23T21:44:41.048Z,26.23
2022-10-23T21:47:08.693Z,22.92
2022-10-23T21:49:36.026Z,24.55
2022-10-23T21:52:05.009Z,21.25
2022-10-23T21:54:32.733Z,21.20
2022-10-23T21:57:00.195Z,25.60
2022-10-23T21:59:30.160Z,23.23
2022-10-23T22:01:59.821Z,25.33
2022-10-23T22:04:27.116Z,22.83
2022-10-23T22:06:54.627Z,23.52
2022-10-23T22:09:22.478Z,24.45
2022-10-23T22:11:52.429Z,25.33
2022-10-23T22:14:22.310Z,24.38
2022-10-23T22:16:50.135Z,26.92
2022-10-23T22:19:19.289Z,24.38
2022-10-23T22:21:48.036Z,23.17
2022-10-23T22:24:17.649Z,23.35
2022-10-23T22:26:52.231Z,25.15
2022-10-23T22:29:26.409Z,26.05
2022-10-23T22:31:54.226Z,27.17
2022-10-23T22:34:48.318Z,32.60
2022-10-23T22:37:13.575Z,30.85
2022-10-23T22:39:41.269Z,31.83
2022-10-23T22:42:08.979Z,31.52
2022-10-23T22:44:36.200Z,29.90
2022-10-23T22:47:03.862Z,31.50
2022-10-23T22:49:31.104Z,30.02
2022-10-23T22:51:58.677Z,26.27
2022-10-23T22:54:25.856Z,29.65
2022-10-23T22:56:53.265Z,25.50
2022-10-23T22:59:20.439Z,22.20
2022-10-23T23:01:49.384Z,20.52
2022-10-23T23:07:12.247Z,32.33
2022-10-23T23:09:44.520Z,28.10
2022-10-23T23:12:14.274Z,39.47
2022-10-23T23:14:42.730Z,38.55
2022-10-23T23:17:10.775Z,40.42
2022-10-23T23:19:38.414Z,42.78
2022-10-23T23:22:06.603Z,37.33
2022-10-23T23:24:34.296Z,40.72
2022-10-23T23:27:04.774Z,39.83
2022-10-23T23:29:32.450Z,40.70
2022-10-23T23:31:59.939Z,41.60
2022-10-23T23:34:27.154Z,40.22
2022-10-23T23:36:54.582Z,38.53
2022-10-23T23:39:21.868Z,34.58
2022-10-23T23:41:49.395Z,36.70
2022-10-23T23:44:16.979Z,37.08
2022-10-23T23:46:44.826Z,29.08
2022-10-23T23:49:12.121Z,30.45
2022-10-23T23:51:39.584Z,30.55
2022-10-23T23:54:06.884Z,28.95
2022-10-23T23:56:34.288Z,29.85
2022-10-23T23:59:01.621Z,34.53
